sensor_id;sensor_type;location;lat;lon;timestamp;pressure;altitude;pressure_sealevel;temperature;humidity
33280;BME280;20403;43.114;12.434;2022-12-18T00:00:24;99922.72;;;8.92;100.00
33280;BME280;20403;43.114;12.434;2022-12-18T00:02:49;99925.13;;;8.94;100.00
33280;BME280;20403;43.114;12.434;2022-12-18T00:05:15;99929.34;;;8.95;100.00
33280;BME280;20403;43.114;12.434;2022-12-18T00:07:40;99938.13;;;8.94;100.00
33280;BME280;20403;43.114;12.434;2022-12-18T00:10:06;99929.97;;;8.97;100.00
33280;BME280;20403;43.114;12.434;2022-12-18T00:12:31;99925.59;;;9.04;100.00
33280;BME280;20403;43.114;12.434;2022-12-18T00:14:56;99931.03;;;9.09;100.00
33280;BME280;20403;43.114;12.434;2022-12-18T00:17:22;99932.81;;;9.09;100.00
33280;BME280;20403;43.114;12.434;2022-12-18T00:19:47;99930.19;;;9.02;100.00
33280;BME280;20403;43.114;12.434;2022-12-18T00:22:12;99939.00;;;9.08;100.00
33280;BME280;20403;43.114;12.434;2022-12-18T00:24:37;99944.25;;;9.14;100.00
33280;BME280;20403;43.114;12.434;2022-12-18T00:27:03;99934.16;;;8.98;100.00
33280;BME280;20403;43.114;12.434;2022-12-18T00:29:28;99941.91;;;8.91;100.00
33280;BME280;20403;43.114;12.434;2022-12-18T00:31:53;99952.34;;;8.98;100.00
33280;BME280;20403;43.114;12.434;2022-12-18T00:34:18;99941.50;;;8.88;100.00
33280;BME280;20403;43.114;12.434;2022-12-18T00:36:44;99958.66;;;8.82;100.00
33280;BME280;20403;43.114;12.434;2022-12-18T00:39:12;99950.16;;;8.73;100.00
33280;BME280;20403;43.114;12.434;2022-12-18T00:41:37;99955.34;;;8.67;100.00
33280;BME280;20403;43.114;12.434;2022-12-18T00:44:21;99961.13;;;8.69;100.00
33280;BME280;20403;43.114;12.434;2022-12-18T00:46:47;99967.22;;;8.76;100.00
33280;BME280;20403;43.114;12.434;2022-12-18T00:49:12;99969.00;;;8.75;100.00
33280;BME280;20403;43.114;12.434;2022-12-18T00:51:38;99972.53;;;8.68;100.00
33280;BME280;20403;43.114;12.434;2022-12-18T00:54:03;99975.31;;;8.66;100.00
33280;BME280;20403;43.114;12.434;2022-12-18T00:56:28;99990.13;;;8.66;100.00
33280;BME280;20403;43.114;12.434;2022-12-18T00:58:54;99984.41;;;8.77;100.00
33280;BME280;20403;43.114;12.434;2022-12-18T01:01:19;99989.13;;;8.67;100.00
33280;BME280;20403;43.114;12.434;2022-12-18T01:03:44;99991.28;;;8.63;100.00
33280;BME280;20403;43.114;12.434;2022-12-18T01:06:13;99996.59;;;8.55;100.00
33280;BME280;20403;43.114;12.434;2022-12-18T01:08:39;100008.22;;;8.37;100.00
33280;BME280;20403;43.114;12.434;2022-12-18T01:11:11;100005.56;;;8.31;100.00
33280;BME280;20403;43.114;12.434;2022-12-18T01:13:37;100013.31;;;8.46;100.00
33280;BME280;20403;43.114;12.434;2022-12-18T01:16:02;100015.31;;;8.29;100.00
33280;BME280;20403;43.114;12.434;2022-12-18T01:18:28;100020.69;;;8.42;100.00
33280;BME280;20403;43.114;12.434;2022-12-18T01:20:53;100024.44;;;8.39;100.00
33280;BME280;20403;43.114;12.434;2022-12-18T01:23:18;100029.19;;;8.36;100.00
33280;BME280;20403;43.114;12.434;2022-12-18T01:25:43;100030.59;;;8.38;100.00
33280;BME280;20403;43.114;12.434;2022-12-18T01:28:09;100030.00;;;8.36;100.00
33280;BME280;20403;43.114;12.434;2022-12-18T01:30:34;100035.34;;;8.13;100.00
33280;BME280;20403;43.114;12.434;2022-12-18T01:32:59;100038.28;;;8.10;100.00
33280;BME280;20403;43.114;12.434;2022-12-18T01:35:25;100039.88;;;8.26;100.00
33280;BME280;20403;43.114;12.434;2022-12-18T01:37:53;100048.84;;;8.24;100.00
33280;BME280;20403;43.114;12.434;2022-12-18T01:40:19;100044.19;;;8.19;100.00
33280;BME280;20403;43.114;12.434;2022-12-18T01:42:44;100055.59;;;8.18;100.00
33280;BME280;20403;43.114;12.434;2022-12-18T01:52:31;100064.34;;;8.17;100.00
33280;BME280;20403;43.114;12.434;2022-12-18T01:54:57;100062.38;;;8.19;100.00
33280;BME280;20403;43.114;12.434;2022-12-18T01:57:24;100067.88;;;8.09;100.00
33280;BME280;20403;43.114;12.434;2022-12-18T01:59:51;100067.41;;;8.06;100.00
33280;BME280;20403;43.114;12.434;2022-12-18T02:02:17;100073.56;;;8.19;100.00
33280;BME280;20403;43.114;12.434;2022-12-18T02:04:43;100071.44;;;8.08;100.00
33280;BME280;20403;43.114;12.434;2022-12-18T02:09:58;100077.59;;;8.22;100.00
33280;BME280;20403;43.114;12.434;2022-12-18T02:12:26;100075.00;;;8.22;100.00
33280;BME280;20403;43.114;12.434;2022-12-18T02:17:23;100073.50;;;8.13;100.00
33280;BME280;20403;43.114;12.434;2022-12-18T02:22:41;100082.78;;;8.37;100.00
33280;BME280;20403;43.114;12.434;2022-12-18T02:27:40;100082.44;;;8.40;100.00
33280;BME280;20403;43.114;12.434;2022-12-18T02:30:07;100083.06;;;8.42;100.00
33280;BME280;20403;43.114;12.434;2022-12-18T02:32:51;100082.28;;;8.41;100.00
33280;BME280;20403;43.114;12.434;2022-12-18T02:35:20;100086.00;;;8.39;100.00
33280;BME280;20403;43.114;12.434;2022-12-18T02:37:46;100079.13;;;8.46;100.00
33280;BME280;20403;43.114;12.434;2022-12-18T02:40:12;100078.28;;;8.46;100.00
33280;BME280;20403;43.114;12.434;2022-12-18T02:42:39;100075.53;;;8.32;100.00
33280;BME280;20403;43.114;12.434;2022-12-18T02:45:04;100091.28;;;8.46;100.00
33280;BME280;20403;43.114;12.434;2022-12-18T02:47:31;100089.78;;;8.36;100.00
33280;BME280;20403;43.114;12.434;2022-12-18T02:55:00;100093.19;;;8.37;100.00
33280;BME280;20403;43.114;12.434;2022-12-18T03:00:04;100103.25;;;8.25;100.00
33280;BME280;20403;43.114;12.434;2022-12-18T03:02:45;100094.69;;;8.31;100.00
33280;BME280;20403;43.114;12.434;2022-12-18T03:05:13;100100.81;;;8.24;100.00
33280;BME280;20403;43.114;12.434;2022-12-18T03:08:41;100102.25;;;8.26;100.00
33280;BME280;20403;43.114;12.434;2022-12-18T03:10:35;100100.44;;;8.27;100.00
33280;BME280;20403;43.114;12.434;2022-12-18T03:13:23;100102.28;;;8.11;100.00
33280;BME280;20403;43.114;12.434;2022-12-18T03:15:50;100108.09;;;8.13;100.00
33280;BME280;20403;43.114;12.434;2022-12-18T03:19:01;100105.47;;;8.28;100.00
33280;BME280;20403;43.114;12.434;2022-12-18T03:21:06;100109.41;;;8.24;100.00
33280;BME280;20403;43.114;12.434;2022-12-18T03:23:40;100104.41;;;8.23;100.00
33280;BME280;20403;43.114;12.434;2022-12-18T03:26:09;100101.09;;;8.14;100.00
33280;BME280;20403;43.114;12.434;2022-12-18T03:28:37;100098.66;;;8.12;100.00
33280;BME280;20403;43.114;12.434;2022-12-18T03:31:03;100096.16;;;8.19;100.00
33280;BME280;20403;43.114;12.434;2022-12-18T03:33:34;100101.91;;;7.99;100.00
33280;BME280;20403;43.114;12.434;2022-12-18T03:36:02;100098.16;;;8.02;100.00
33280;BME280;20403;43.114;12.434;2022-12-18T03:38:27;100100.22;;;7.77;100.00
33280;BME280;20403;43.114;12.434;2022-12-18T03:44:23;100103.22;;;7.81;100.00
33280;BME280;20403;43.114;12.434;2022-12-18T03:48:52;100108.09;;;7.84;100.00
33280;BME280;20403;43.114;12.434;2022-12-18T03:51:26;100110.13;;;7.73;100.00
33280;BME280;20403;43.114;12.434;2022-12-18T03:53:57;100111.56;;;7.61;100.00
33280;BME280;20403;43.114;12.434;2022-12-18T03:56:24;100117.53;;;7.47;100.00
33280;BME280;20403;43.114;12.434;2022-12-18T03:58:50;100111.34;;;7.48;100.00
33280;BME280;20403;43.114;12.434;2022-12-18T04:01:17;100113.53;;;7.59;100.00
33280;BME280;20403;43.114;12.434;2022-12-18T04:03:44;100120.53;;;7.35;100.00
33280;BME280;20403;43.114;12.434;2022-12-18T04:06:10;100116.31;;;7.34;100.00
33280;BME280;20403;43.114;12.434;2022-12-18T04:08:36;100130.56;;;7.39;100.00
33280;BME280;20403;43.114;12.434;2022-12-18T04:11:02;100133.50;;;7.35;100.00
33280;BME280;20403;43.114;12.434;2022-12-18T04:13:28;100133.78;;;7.41;100.00
33280;BME280;20403;43.114;12.434;2022-12-18T04:15:54;100140.78;;;7.40;100.00
33280;BME280;20403;43.114;12.434;2022-12-18T04:18:19;100144.94;;;7.26;100.00
33280;BME280;20403;43.114;12.434;2022-12-18T04:20:44;100154.63;;;7.32;100.00
33280;BME280;20403;43.114;12.434;2022-12-18T04:23:10;100161.81;;;7.22;100.00
33280;BME280;20403;43.114;12.434;2022-12-18T04:25:35;100158.25;;;7.23;100.00
33280;BME280;20403;43.114;12.434;2022-12-18T04:28:01;100154.97;;;7.29;100.00
33280;BME280;20403;43.114;12.434;2022-12-18T04:30:26;100156.06;;;7.35;100.00
33280;BME280;20403;43.114;12.434;2022-12-18T04:32:51;100164.53;;;7.29;100.00
33280;BME280;20403;43.114;12.434;2022-12-18T04:35:17;100163.25;;;7.25;100.00
33280;BME280;20403;43.114;12.434;2022-12-18T04:37:42;100164.59;;;7.21;100.00
33280;BME280;20403;43.114;12.434;2022-12-18T04:40:08;100164.50;;;7.14;100.00
33280;BME280;20403;43.114;12.434;2022-12-18T04:42:33;100173.53;;;7.18;100.00
33280;BME280;20403;43.114;12.434;2022-12-18T04:44:59;100173.47;;;7.03;100.00
33280;BME280;20403;43.114;12.434;2022-12-18T04:47:24;100181.00;;;7.13;100.00
33280;BME280;20403;43.114;12.434;2022-12-18T04:49:49;100177.78;;;7.11;100.00
33280;BME280;20403;43.114;12.434;2022-12-18T04:52:14;100174.69;;;7.15;100.00
33280;BME280;20403;43.114;12.434;2022-12-18T04:54:40;100180.63;;;7.24;100.00
33280;BME280;20403;43.114;12.434;2022-12-18T04:57:05;100181.53;;;7.08;100.00
33280;BME280;20403;43.114;12.434;2022-12-18T04:59:30;100194.06;;;7.05;100.00
33280;BME280;20403;43.114;12.434;2022-12-18T05:01:55;100195.31;;;7.09;100.00
33280;BME280;20403;43.114;12.434;2022-12-18T05:04:21;100198.88;;;7.08;100.00
33280;BME280;20403;43.114;12.434;2022-12-18T05:06:46;100201.88;;;6.88;100.00
33280;BME280;20403;43.114;12.434;2022-12-18T05:09:11;100212.75;;;6.92;100.00
33280;BME280;20403;43.114;12.434;2022-12-18T05:11:37;100208.31;;;7.01;100.00
33280;BME280;20403;43.114;12.434;2022-12-18T05:14:02;100215.63;;;6.97;100.00
33280;BME280;20403;43.114;12.434;2022-12-18T05:16:27;100216.28;;;6.99;100.00
33280;BME280;20403;43.114;12.434;2022-12-18T05:18:53;100217.06;;;7.00;100.00
33280;BME280;20403;43.114;12.434;2022-12-18T05:21:18;100226.13;;;7.04;100.00
33280;BME280;20403;43.114;12.434;2022-12-18T05:23:43;100227.75;;;7.05;100.00
33280;BME280;20403;43.114;12.434;2022-12-18T05:26:08;100232.59;;;7.08;100.00
33280;BME280;20403;43.114;12.434;2022-12-18T05:28:37;100226.84;;;7.21;100.00
33280;BME280;20403;43.114;12.434;2022-12-18T05:31:03;100232.22;;;7.19;100.00
33280;BME280;20403;43.114;12.434;2022-12-18T05:33:30;100240.63;;;7.21;100.00
33280;BME280;20403;43.114;12.434;2022-12-18T05:35:56;100242.38;;;7.29;100.00
33280;BME280;20403;43.114;12.434;2022-12-18T05:38:22;100247.41;;;7.30;100.00
33280;BME280;20403;43.114;12.434;2022-12-18T05:40:48;100252.63;;;7.22;100.00
33280;BME280;20403;43.114;12.434;2022-12-18T05:43:14;100246.97;;;7.42;100.00
33280;BME280;20403;43.114;12.434;2022-12-18T05:45:40;100254.31;;;7.38;100.00
33280;BME280;20403;43.114;12.434;2022-12-18T05:48:06;100260.31;;;7.39;100.00
33280;BME280;20403;43.114;12.434;2022-12-18T05:50:35;100255.41;;;7.44;100.00
33280;BME280;20403;43.114;12.434;2022-12-18T05:53:01;100264.94;;;7.51;100.00
33280;BME280;20403;43.114;12.434;2022-12-18T05:55:27;100269.25;;;7.59;100.00
33280;BME280;20403;43.114;12.434;2022-12-18T05:57:52;100274.41;;;7.67;100.00
33280;BME280;20403;43.114;12.434;2022-12-18T06:00:17;100273.88;;;7.72;100.00
33280;BME280;20403;43.114;12.434;2022-12-18T06:02:46;100283.38;;;7.79;100.00
33280;BME280;20403;43.114;12.434;2022-12-18T06:05:11;100277.19;;;7.81;100.00
33280;BME280;20403;43.114;12.434;2022-12-18T06:07:36;100278.56;;;7.76;100.00
33280;BME280;20403;43.114;12.434;2022-12-18T06:10:02;100280.28;;;7.84;100.00
33280;BME280;20403;43.114;12.434;2022-12-18T06:12:27;100284.81;;;7.82;100.00
33280;BME280;20403;43.114;12.434;2022-12-18T06:14:52;100286.53;;;7.90;100.00
33280;BME280;20403;43.114;12.434;2022-12-18T06:17:18;100287.97;;;7.92;100.00
33280;BME280;20403;43.114;12.434;2022-12-18T06:19:43;100291.09;;;7.88;100.00
33280;BME280;20403;43.114;12.434;2022-12-18T06:22:08;100287.00;;;7.93;100.00
33280;BME280;20403;43.114;12.434;2022-12-18T06:24:33;100296.75;;;7.91;100.00
33280;BME280;20403;43.114;12.434;2022-12-18T06:26:59;100302.13;;;7.90;100.00
33280;BME280;20403;43.114;12.434;2022-12-18T06:29:24;100297.84;;;7.97;100.00
33280;BME280;20403;43.114;12.434;2022-12-18T06:31:49;100307.72;;;8.02;100.00
33280;BME280;20403;43.114;12.434;2022-12-18T06:34:14;100306.09;;;8.00;100.00
33280;BME280;20403;43.114;12.434;2022-12-18T06:36:40;100312.97;;;7.93;100.00
33280;BME280;20403;43.114;12.434;2022-12-18T06:39:05;100315.19;;;8.05;100.00
33280;BME280;20403;43.114;12.434;2022-12-18T06:41:30;100312.91;;;8.02;100.00
33280;BME280;20403;43.114;12.434;2022-12-18T06:43:57;100314.25;;;7.97;100.00
33280;BME280;20403;43.114;12.434;2022-12-18T06:46:22;100320.25;;;7.98;100.00
33280;BME280;20403;43.114;12.434;2022-12-18T06:48:48;100322.44;;;8.09;100.00
33280;BME280;20403;43.114;12.434;2022-12-18T06:51:18;100326.00;;;8.08;100.00
33280;BME280;20403;43.114;12.434;2022-12-18T06:53:43;100328.03;;;7.98;100.00
33280;BME280;20403;43.114;12.434;2022-12-18T06:56:09;100340.34;;;8.04;100.00
33280;BME280;20403;43.114;12.434;2022-12-18T06:58:34;100337.75;;;8.04;100.00
33280;BME280;20403;43.114;12.434;2022-12-18T07:01:00;100339.34;;;8.05;100.00
33280;BME280;20403;43.114;12.434;2022-12-18T07:03:26;100348.81;;;7.98;100.00
33280;BME280;20403;43.114;12.434;2022-12-18T07:05:51;100348.75;;;8.06;100.00
33280;BME280;20403;43.114;12.434;2022-12-18T07:08:17;100357.59;;;7.97;100.00
33280;BME280;20403;43.114;12.434;2022-12-18T07:10:42;100350.44;;;7.99;100.00
33280;BME280;20403;43.114;12.434;2022-12-18T07:13:08;100353.91;;;8.14;100.00
33280;BME280;20403;43.114;12.434;2022-12-18T07:15:33;100351.19;;;8.08;100.00
33280;BME280;20403;43.114;12.434;2022-12-18T07:17:58;100358.09;;;8.15;100.00
33280;BME280;20403;43.114;12.434;2022-12-18T07:20:23;100367.28;;;8.26;100.00
33280;BME280;20403;43.114;12.434;2022-12-18T07:22:49;100363.25;;;8.24;100.00
33280;BME280;20403;43.114;12.434;2022-12-18T07:25:14;100370.69;;;8.27;100.00
33280;BME280;20403;43.114;12.434;2022-12-18T07:27:39;100373.75;;;8.30;100.00
33280;BME280;20403;43.114;12.434;2022-12-18T07:30:05;100372.75;;;8.31;100.00
33280;BME280;20403;43.114;12.434;2022-12-18T07:32:30;100372.59;;;8.33;100.00
33280;BME280;20403;43.114;12.434;2022-12-18T07:34:55;100377.78;;;8.33;100.00
33280;BME280;20403;43.114;12.434;2022-12-18T07:37:21;100381.31;;;8.40;100.00
33280;BME280;20403;43.114;12.434;2022-12-18T07:39:46;100397.47;;;8.50;100.00
33280;BME280;20403;43.114;12.434;2022-12-18T07:42:11;100398.75;;;8.54;100.00
33280;BME280;20403;43.114;12.434;2022-12-18T07:44:55;100402.44;;;8.60;100.00
33280;BME280;20403;43.114;12.434;2022-12-18T07:47:20;100405.31;;;8.65;100.00
33280;BME280;20403;43.114;12.434;2022-12-18T07:49:46;100412.75;;;8.68;100.00
33280;BME280;20403;43.114;12.434;2022-12-18T07:52:11;100409.63;;;8.73;100.00
33280;BME280;20403;43.114;12.434;2022-12-18T07:54:37;100410.97;;;8.69;100.00
33280;BME280;20403;43.114;12.434;2022-12-18T07:57:02;100407.84;;;8.73;100.00
33280;BME280;20403;43.114;12.434;2022-12-18T07:59:28;100410.25;;;8.75;100.00
33280;BME280;20403;43.114;12.434;2022-12-18T08:01:53;100416.38;;;8.82;100.00
33280;BME280;20403;43.114;12.434;2022-12-18T08:04:18;100416.09;;;8.92;100.00
33280;BME280;20403;43.114;12.434;2022-12-18T08:06:43;100423.38;;;8.96;100.00
33280;BME280;20403;43.114;12.434;2022-12-18T08:09:09;100427.03;;;8.87;100.00
33280;BME280;20403;43.114;12.434;2022-12-18T08:11:34;100432.72;;;8.91;100.00
33280;BME280;20403;43.114;12.434;2022-12-18T08:14:00;100433.88;;;9.03;100.00
33280;BME280;20403;43.114;12.434;2022-12-18T08:16:25;100443.59;;;9.09;100.00
33280;BME280;20403;43.114;12.434;2022-12-18T08:18:51;100445.38;;;9.09;100.00
33280;BME280;20403;43.114;12.434;2022-12-18T08:21:18;100441.72;;;9.18;100.00
33280;BME280;20403;43.114;12.434;2022-12-18T08:23:45;100442.34;;;9.20;100.00
33280;BME280;20403;43.114;12.434;2022-12-18T08:26:11;100446.72;;;9.19;100.00
33280;BME280;20403;43.114;12.434;2022-12-18T08:28:36;100454.19;;;9.22;100.00
33280;BME280;20403;43.114;12.434;2022-12-18T08:31:02;100457.06;;;9.28;100.00
33280;BME280;20403;43.114;12.434;2022-12-18T08:33:27;100468.84;;;9.38;100.00
33280;BME280;20403;43.114;12.434;2022-12-18T08:35:52;100460.38;;;9.36;100.00
33280;BME280;20403;43.114;12.434;2022-12-18T08:38:18;100467.66;;;9.41;100.00
33280;BME280;20403;43.114;12.434;2022-12-18T08:40:43;100463.88;;;9.29;100.00
33280;BME280;20403;43.114;12.434;2022-12-18T08:43:09;100469.34;;;9.49;100.00
33280;BME280;20403;43.114;12.434;2022-12-18T08:45:53;100478.78;;;9.35;100.00
33280;BME280;20403;43.114;12.434;2022-12-18T08:48:19;100481.38;;;9.35;100.00
33280;BME280;20403;43.114;12.434;2022-12-18T08:50:52;100488.66;;;9.39;100.00
33280;BME280;20403;43.114;12.434;2022-12-18T08:53:18;100489.13;;;9.43;100.00
33280;BME280;20403;43.114;12.434;2022-12-18T08:55:43;100492.41;;;9.52;100.00
33280;BME280;20403;43.114;12.434;2022-12-18T08:58:08;100489.09;;;9.58;100.00
33280;BME280;20403;43.114;12.434;2022-12-18T09:00:34;100489.19;;;9.64;100.00
33280;BME280;20403;43.114;12.434;2022-12-18T09:02:59;100487.56;;;9.78;100.00
33280;BME280;20403;43.114;12.434;2022-12-18T09:05:24;100486.03;;;10.20;100.00
33280;BME280;20403;43.114;12.434;2022-12-18T09:07:49;100476.78;;;10.54;100.00
33280;BME280;20403;43.114;12.434;2022-12-18T09:10:15;100491.03;;;10.80;100.00
33280;BME280;20403;43.114;12.434;2022-12-18T09:12:40;100482.75;;;11.04;100.00
33280;BME280;20403;43.114;12.434;2022-12-18T09:15:05;100489.78;;;11.32;100.00
33280;BME280;20403;43.114;12.434;2022-12-18T09:17:31;100488.72;;;11.61;100.00
33280;BME280;20403;43.114;12.434;2022-12-18T09:19:56;100489.78;;;11.73;100.00
33280;BME280;20403;43.114;12.434;2022-12-18T09:22:21;100479.63;;;11.92;100.00
33280;BME280;20403;43.114;12.434;2022-12-18T09:24:48;100483.69;;;12.01;100.00
33280;BME280;20403;43.114;12.434;2022-12-18T09:27:13;100483.94;;;12.06;100.00
33280;BME280;20403;43.114;12.434;2022-12-18T09:29:38;100475.25;;;12.06;100.00
33280;BME280;20403;43.114;12.434;2022-12-18T09:32:04;100476.66;;;12.02;100.00
33280;BME280;20403;43.114;12.434;2022-12-18T09:34:29;100479.28;;;12.02;100.00
33280;BME280;20403;43.114;12.434;2022-12-18T09:36:54;100484.31;;;12.10;100.00
33280;BME280;20403;43.114;12.434;2022-12-18T09:39:20;100472.84;;;12.04;100.00
33280;BME280;20403;43.114;12.434;2022-12-18T09:49:18;100478.19;;;12.64;100.00
33280;BME280;20403;43.114;12.434;2022-12-18T09:51:50;100474.13;;;12.61;100.00
33280;BME280;20403;43.114;12.434;2022-12-18T09:54:22;100475.75;;;12.69;100.00
33280;BME280;20403;43.114;12.434;2022-12-18T09:56:49;100474.56;;;12.92;100.00
33280;BME280;20403;43.114;12.434;2022-12-18T09:59:18;100475.13;;;13.00;100.00
33280;BME280;20403;43.114;12.434;2022-12-18T10:01:44;100467.06;;;13.22;100.00
33280;BME280;20403;43.114;12.434;2022-12-18T10:04:09;100467.44;;;13.39;100.00
33280;BME280;20403;43.114;12.434;2022-12-18T10:06:39;100461.59;;;13.23;100.00
33280;BME280;20403;43.114;12.434;2022-12-18T10:19:04;100457.41;;;13.09;100.00
33280;BME280;20403;43.114;12.434;2022-12-18T10:21:32;100466.03;;;13.16;100.00
33280;BME280;20403;43.114;12.434;2022-12-18T10:24:02;100450.16;;;13.11;100.00
33280;BME280;20403;43.114;12.434;2022-12-18T10:26:33;100462.81;;;13.14;100.00
33280;BME280;20403;43.114;12.434;2022-12-18T10:28:58;100462.44;;;13.17;100.00
33280;BME280;20403;43.114;12.434;2022-12-18T10:31:24;100458.59;;;13.27;100.00
33280;BME280;20403;43.114;12.434;2022-12-18T10:33:49;100461.16;;;13.40;100.00
33280;BME280;20403;43.114;12.434;2022-12-18T10:36:15;100455.94;;;13.40;100.00
33280;BME280;20403;43.114;12.434;2022-12-18T10:38:40;100456.34;;;13.43;100.00
33280;BME280;20403;43.114;12.434;2022-12-18T10:43:44;100467.00;;;13.49;100.00
33280;BME280;20403;43.114;12.434;2022-12-18T10:53:50;100460.38;;;13.39;100.00
33280;BME280;20403;43.114;12.434;2022-12-18T10:56:19;100459.41;;;13.34;100.00
33280;BME280;20403;43.114;12.434;2022-12-18T10:58:45;100466.28;;;13.15;100.00
33280;BME280;20403;43.114;12.434;2022-12-18T11:01:19;100466.47;;;13.13;100.00
33280;BME280;20403;43.114;12.434;2022-12-18T11:03:46;100456.16;;;13.18;100.00
33280;BME280;20403;43.114;12.434;2022-12-18T11:06:23;100457.38;;;13.22;100.00
33280;BME280;20403;43.114;12.434;2022-12-18T11:09:03;100456.78;;;13.34;100.00
33280;BME280;20403;43.114;12.434;2022-12-18T11:11:29;100457.75;;;13.39;100.00
33280;BME280;20403;43.114;12.434;2022-12-18T11:16:20;100456.16;;;13.38;100.00
33280;BME280;20403;43.114;12.434;2022-12-18T11:18:45;100450.13;;;13.31;100.00
33280;BME280;20403;43.114;12.434;2022-12-18T11:21:11;100445.44;;;13.40;100.00
33280;BME280;20403;43.114;12.434;2022-12-18T11:23:44;100437.78;;;13.52;100.00
33280;BME280;20403;43.114;12.434;2022-12-18T11:26:11;100442.16;;;13.58;100.00
33280;BME280;20403;43.114;12.434;2022-12-18T11:33:34;100434.75;;;13.48;100.00
33280;BME280;20403;43.114;12.434;2022-12-18T11:36:02;100433.19;;;13.34;100.00
33280;BME280;20403;43.114;12.434;2022-12-18T11:38:30;100437.22;;;13.23;100.00
33280;BME280;20403;43.114;12.434;2022-12-18T11:43:45;100424.94;;;13.30;100.00
33280;BME280;20403;43.114;12.434;2022-12-18T11:49:10;100424.50;;;13.40;100.00
33280;BME280;20403;43.114;12.434;2022-12-18T11:51:58;100424.81;;;13.63;100.00
33280;BME280;20403;43.114;12.434;2022-12-18T11:54:26;100416.38;;;13.61;100.00
33280;BME280;20403;43.114;12.434;2022-12-18T12:07:35;100416.63;;;14.23;100.00
33280;BME280;20403;43.114;12.434;2022-12-18T12:15:28;100416.78;;;13.97;100.00
33280;BME280;20403;43.114;12.434;2022-12-18T12:18:08;100416.38;;;14.25;100.00
33280;BME280;20403;43.114;12.434;2022-12-18T12:20:43;100420.66;;;14.19;100.00
33280;BME280;20403;43.114;12.434;2022-12-18T12:23:25;100421.06;;;14.16;100.00
33280;BME280;20403;43.114;12.434;2022-12-18T12:25:55;100415.84;;;14.41;100.00
33280;BME280;20403;43.114;12.434;2022-12-18T12:29:13;100422.03;;;14.54;100.00
33280;BME280;20403;43.114;12.434;2022-12-18T12:33:56;100416.03;;;14.71;100.00
33280;BME280;20403;43.114;12.434;2022-12-18T12:39:06;100412.34;;;14.79;100.00
33280;BME280;20403;43.114;12.434;2022-12-18T12:41:33;100419.94;;;14.62;100.00
33280;BME280;20403;43.114;12.434;2022-12-18T12:44:19;100413.03;;;14.43;100.00
33280;BME280;20403;43.114;12.434;2022-12-18T12:46:47;100412.63;;;14.39;100.00
33280;BME280;20403;43.114;12.434;2022-12-18T12:49:15;100408.09;;;14.28;100.00
33280;BME280;20403;43.114;12.434;2022-12-18T12:51:45;100418.28;;;14.43;100.00
33280;BME280;20403;43.114;12.434;2022-12-18T12:54:30;100420.31;;;14.41;100.00
33280;BME280;20403;43.114;12.434;2022-12-18T13:02:10;100419.16;;;14.62;100.00
33280;BME280;20403;43.114;12.434;2022-12-18T13:12:27;100422.78;;;14.36;100.00
33280;BME280;20403;43.114;12.434;2022-12-18T13:15:30;100425.38;;;14.36;100.00
33280;BME280;20403;43.114;12.434;2022-12-18T13:18:03;100428.38;;;14.39;100.00
33280;BME280;20403;43.114;12.434;2022-12-18T13:20:33;100434.69;;;14.32;100.00
33280;BME280;20403;43.114;12.434;2022-12-18T13:22:59;100437.06;;;14.40;100.00
33280;BME280;20403;43.114;12.434;2022-12-18T13:25:28;100433.25;;;14.36;100.00
33280;BME280;20403;43.114;12.434;2022-12-18T13:27:57;100441.63;;;14.26;100.00
33280;BME280;20403;43.114;12.434;2022-12-18T13:48:25;100447.06;;;13.41;100.00
33280;BME280;20403;43.114;12.434;2022-12-18T13:53:39;100457.38;;;13.22;100.00
33280;BME280;20403;43.114;12.434;2022-12-18T13:56:07;100460.22;;;13.08;100.00
33280;BME280;20403;43.114;12.434;2022-12-18T13:58:32;100466.91;;;12.90;100.00
33280;BME280;20403;43.114;12.434;2022-12-18T14:00:58;100474.34;;;12.80;100.00
33280;BME280;20403;43.114;12.434;2022-12-18T14:03:25;100476.97;;;12.60;100.00
33280;BME280;20403;43.114;12.434;2022-12-18T14:05:55;100479.97;;;12.37;100.00
33280;BME280;20403;43.114;12.434;2022-12-18T14:08:21;100485.75;;;12.19;100.00
33280;BME280;20403;43.114;12.434;2022-12-18T14:10:47;100488.16;;;12.14;100.00
33280;BME280;20403;43.114;12.434;2022-12-18T14:13:21;100484.13;;;12.05;100.00
33280;BME280;20403;43.114;12.434;2022-12-18T14:15:48;100485.06;;;11.90;100.00
33280;BME280;20403;43.114;12.434;2022-12-18T14:20:41;100484.69;;;11.93;100.00
33280;BME280;20403;43.114;12.434;2022-12-18T14:26:25;100481.38;;;11.78;100.00
33280;BME280;20403;43.114;12.434;2022-12-18T14:28:54;100493.38;;;11.66;100.00
33280;BME280;20403;43.114;12.434;2022-12-18T14:31:24;100492.69;;;11.50;100.00
33280;BME280;20403;43.114;12.434;2022-12-18T14:33:50;100489.84;;;11.45;100.00
33280;BME280;20403;43.114;12.434;2022-12-18T14:36:16;100496.22;;;11.36;100.00
33280;BME280;20403;43.114;12.434;2022-12-18T14:38:42;100500.22;;;11.32;100.00
33280;BME280;20403;43.114;12.434;2022-12-18T14:41:11;100500.34;;;11.17;100.00
33280;BME280;20403;43.114;12.434;2022-12-18T14:43:39;100498.34;;;11.19;100.00
33280;BME280;20403;43.114;12.434;2022-12-18T14:46:05;100513.91;;;11.06;100.00
33280;BME280;20403;43.114;12.434;2022-12-18T14:48:38;100511.69;;;11.03;100.00
33280;BME280;20403;43.114;12.434;2022-12-18T14:51:25;100510.31;;;11.07;100.00